createdAt,value
2022-08-26T00:02:24.212Z,100937.00
2022-08-26T00:04:54.709Z,100933.00
2022-08-26T00:07:25.100Z,100930.00
2022-08-26T00:09:58.921Z,100922.00
2022-08-26T00:12:36.005Z,100929.00
2022-08-26T00:15:11.513Z,100927.00
2022-08-26T00:17:42.285Z,100935.00
2022-08-26T00:20:22.473Z,100928.00
2022-08-26T00:22:53.038Z,100924.00
2022-08-26T00:25:26.425Z,100914.00
2022-08-26T00:27:56.850Z,100916.00
2022-08-26T00:30:30.327Z,100918.00
2022-08-26T00:33:01.960Z,100917.00
2022-08-26T00:35:33.542Z,100919.00
2022-08-26T00:38:05.258Z,100919.00
2022-08-26T00:40:47.378Z,100922.00
2022-08-26T00:43:18.600Z,100926.00
2022-08-26T00:45:56.637Z,100922.00
2022-08-26T00:48:31.908Z,100909.00
2022-08-26T00:51:09.763Z,100911.00
2022-08-26T00:53:46.796Z,100906.00
2022-08-26T00:56:27.288Z,100906.00
2022-08-26T00:59:00.107Z,100903.00
2022-08-26T01:01:31.391Z,100908.00
2022-08-26T01:04:02.808Z,100908.00
2022-08-26T01:06:33.381Z,100906.00
2022-08-26T01:09:03.734Z,100896.00
2022-08-26T01:11:37.263Z,100906.00
2022-08-26T01:14:09.434Z,100903.00
2022-08-26T01:16:40.382Z,100900.00
2022-08-26T01:19:21.986Z,100910.00
2022-08-26T01:22:01.329Z,100904.00
2022-08-26T01:24:34.816Z,100903.00
2022-08-26T01:27:13.469Z,100898.00
2022-08-26T01:29:47.426Z,100904.00
2022-08-26T01:32:25.988Z,100901.00
2022-08-26T01:34:57.378Z,100902.00
2022-08-26T01:37:36.910Z,100897.00
2022-08-26T01:40:17.305Z,100901.00
2022-08-26T01:42:49.337Z,100895.00
2022-08-26T01:45:25.879Z,100904.00
2022-08-26T01:48:00.319Z,100902.00
2022-08-26T01:50:34.456Z,100896.00
2022-08-26T01:53:09.757Z,100895.00
2022-08-26T01:55:49.489Z,100887.00
2022-08-26T01:58:27.041Z,100890.00
2022-08-26T02:00:57.961Z,100891.00
2022-08-26T02:03:29.960Z,100886.00
2022-08-26T02:06:04.720Z,100884.00
2022-08-26T02:08:42.478Z,100882.00
2022-08-26T02:11:18.285Z,100882.00
2022-08-26T02:13:52.525Z,100886.00
2022-08-26T02:16:29.211Z,100884.00
2022-08-26T02:18:59.348Z,100887.00
2022-08-26T02:21:30.024Z,100888.00
2022-08-26T02:24:11.678Z,100882.00
2022-08-26T02:26:46.377Z,100880.00
2022-08-26T02:29:22.776Z,100880.00
2022-08-26T02:31:53.305Z,100877.00
2022-08-26T02:34:31.430Z,100872.00
2022-08-26T02:37:03.684Z,100879.00
2022-08-26T02:39:35.473Z,100884.00
2022-08-26T02:42:09.188Z,100877.00
2022-08-26T02:44:40.289Z,100877.00
2022-08-26T02:47:11.083Z,100874.00
2022-08-26T02:49:44.346Z,100870.00
2022-08-26T02:52:17.790Z,100881.00
2022-08-26T02:54:49.594Z,100870.00
2022-08-26T02:57:23.420Z,100882.00
2022-08-26T02:59:54.511Z,100875.00
2022-08-26T03:02:24.834Z,100869.00
2022-08-26T03:04:57.323Z,100865.00
2022-08-26T03:07:31.089Z,100872.00
2022-08-26T03:10:01.777Z,100872.00
2022-08-26T03:12:41.796Z,100867.00
2022-08-26T03:15:17.573Z,100865.00
2022-08-26T03:17:50.502Z,100860.00
2022-08-26T03:20:21.615Z,100866.00
2022-08-26T03:22:53.518Z,100850.00
2022-08-26T03:25:27.161Z,100862.00
2022-08-26T03:28:00.130Z,100856.00
2022-08-26T03:30:44.890Z,100852.00
2022-08-26T03:33:17.483Z,100845.00
2022-08-26T03:35:50.543Z,100849.00
2022-08-26T03:38:22.186Z,100843.00
2022-08-26T03:40:52.648Z,100844.00
2022-08-26T03:43:26.963Z,100844.00
2022-08-26T03:45:57.323Z,100848.00
2022-08-26T03:48:27.573Z,100837.00
2022-08-26T03:50:57.756Z,100833.00
2022-08-26T03:53:28.168Z,100846.00
2022-08-26T03:55:58.567Z,100834.00
2022-08-26T03:58:32.308Z,100836.00
2022-08-26T04:01:02.830Z,100827.00
2022-08-26T04:03:46.348Z,100832.00
2022-08-26T04:06:16.661Z,100837.00
2022-08-26T04:08:47.754Z,100838.00
2022-08-26T04:11:21.751Z,100837.00
2022-08-26T04:13:54.756Z,100844.00
2022-08-26T04:16:25.107Z,100836.00
2022-08-26T04:18:58.310Z,100847.00
2022-08-26T04:21:30.193Z,100846.00
2022-08-26T04:24:03.619Z,100845.00
2022-08-26T04:26:39.591Z,100844.00
2022-08-26T04:29:20.874Z,100829.00
2022-08-26T04:31:55.259Z,100839.00
2022-08-26T04:34:27.276Z,100836.00
2022-08-26T04:36:59.375Z,100843.00
2022-08-26T04:39:30.337Z,100836.00
2022-08-26T04:42:02.735Z,100837.00
2022-08-26T04:44:39.397Z,100833.00
2022-08-26T04:47:10.025Z,100833.00
2022-08-26T04:49:41.547Z,100843.00
2022-08-26T04:52:12.060Z,100848.00
2022-08-26T04:54:42.860Z,100844.00
2022-08-26T04:57:14.125Z,100849.00
2022-08-26T04:59:47.081Z,100832.00
2022-08-26T05:02:19.950Z,100832.00
2022-08-26T05:04:51.902Z,100836.00
2022-08-26T05:07:22.363Z,100837.00
2022-08-26T05:09:53.035Z,100833.00
2022-08-26T05:12:24.885Z,100833.00
2022-08-26T05:14:58.012Z,100829.00
2022-08-26T05:17:28.114Z,100835.00
2022-08-26T05:19:58.530Z,100832.00
2022-08-26T05:22:28.746Z,100835.00
2022-08-26T05:24:59.216Z,100844.00
2022-08-26T05:27:29.521Z,100849.00
2022-08-26T05:30:03.524Z,100850.00
2022-08-26T05:32:34.413Z,100852.00
2022-08-26T05:35:04.633Z,100845.00
2022-08-26T05:37:40.898Z,100849.00
2022-08-26T05:40:12.885Z,100854.00
2022-08-26T05:42:43.128Z,100848.00
2022-08-26T05:45:16.787Z,100856.00
2022-08-26T05:47:47.500Z,100851.00
2022-08-26T05:50:21.988Z,100853.00
2022-08-26T05:52:53.727Z,100860.00
2022-08-26T05:55:24.423Z,100860.00
2022-08-26T05:57:54.622Z,100861.00
2022-08-26T06:00:28.426Z,100862.00
2022-08-26T06:02:59.138Z,100864.00
2022-08-26T06:05:29.919Z,100865.00
2022-08-26T06:08:12.712Z,100862.00
2022-08-26T06:10:48.673Z,100857.00
2022-08-26T06:13:26.973Z,100862.00
2022-08-26T06:16:06.231Z,100854.00
2022-08-26T06:18:41.363Z,100858.00
2022-08-26T06:21:19.738Z,100861.00
2022-08-26T06:24:05.218Z,100860.00
2022-08-26T06:26:36.575Z,100854.00
2022-08-26T06:29:08.772Z,100850.00
2022-08-26T06:31:41.766Z,100849.00
2022-08-26T06:34:12.507Z,100854.00
2022-08-26T06:36:47.401Z,100847.00
2022-08-26T06:39:20.773Z,100852.00
2022-08-26T06:41:52.205Z,100852.00
2022-08-26T06:44:23.437Z,100844.00
2022-08-26T06:46:56.436Z,100859.00
2022-08-26T06:49:27.865Z,100851.00
2022-08-26T06:51:59.299Z,100849.00
2022-08-26T06:54:31.990Z,100854.00
2022-08-26T06:57:02.577Z,100844.00
2022-08-26T06:59:34.003Z,100846.00
2022-08-26T07:02:08.332Z,100844.00
2022-08-26T07:04:38.548Z,100845.00
2022-08-26T07:07:09.668Z,100844.00
2022-08-26T07:09:39.971Z,100848.00
2022-08-26T07:12:10.519Z,100836.00
2022-08-26T07:14:41.309Z,100835.00
2022-08-26T07:17:20.450Z,100844.00
2022-08-26T07:19:51.744Z,100837.00
2022-08-26T07:22:23.253Z,100844.00
2022-08-26T07:24:55.061Z,100844.00
2022-08-26T07:27:26.130Z,100828.00
2022-08-26T07:30:00.181Z,100833.00
2022-08-26T07:32:35.104Z,100832.00
2022-08-26T07:35:05.802Z,100839.00
2022-08-26T07:37:39.358Z,100828.00
2022-08-26T07:40:12.073Z,100826.00
2022-08-26T07:42:42.600Z,100828.00
2022-08-26T07:45:13.365Z,100822.00
2022-08-26T07:47:47.846Z,100824.00
2022-08-26T07:50:18.152Z,100835.00
2022-08-26T07:52:48.462Z,100826.00
2022-08-26T07:55:19.085Z,100823.00
2022-08-26T07:57:49.901Z,100826.00
2022-08-26T08:00:20.678Z,100824.00
2022-08-26T08:02:54.253Z,100828.00
2022-08-26T08:05:27.242Z,100829.00
2022-08-26T08:08:27.223Z,100817.00
2022-08-26T08:10:55.369Z,100815.00
2022-08-26T08:13:27.035Z,100819.00
2022-08-26T08:15:57.648Z,100816.00
2022-08-26T08:18:31.327Z,100815.00
2022-08-26T08:21:20.953Z,100814.00
2022-08-26T08:23:52.784Z,100810.00
2022-08-26T08:26:23.698Z,100814.00
2022-08-26T08:28:56.942Z,100811.00
2022-08-26T08:31:56.280Z,100809.00
2022-08-26T08:34:23.247Z,100809.00
2022-08-26T08:36:54.349Z,100801.00
2022-08-26T08:39:25.139Z,100805.00
2022-08-26T08:42:26.138Z,100800.00
2022-08-26T08:45:01.721Z,100796.00
2022-08-26T08:47:37.927Z,100792.00
2022-08-26T08:50:32.009Z,100792.00
2022-08-26T08:53:15.482Z,100794.00
2022-08-26T08:56:02.138Z,100788.00
2022-08-26T08:58:51.315Z,100787.00
2022-08-26T09:01:39.610Z,100782.00
2022-08-26T09:04:51.551Z,100787.00
2022-08-26T09:07:31.259Z,100771.00
2022-08-26T09:10:08.458Z,100767.00
2022-08-26T09:12:39.016Z,100777.00
2022-08-26T09:15:20.544Z,100780.00
2022-08-26T09:18:00.094Z,100774.00
2022-08-26T09:20:45.682Z,100778.00
2022-08-26T09:23:19.609Z,100776.00
2022-08-26T09:28:50.575Z,100763.00
2022-08-26T09:31:27.639Z,100761.00
2022-08-26T09:34:17.391Z,100767.00
2022-08-26T09:36:51.519Z,100765.00
2022-08-26T09:39:37.928Z,100763.00
2022-08-26T09:42:14.156Z,100764.00
2022-08-26T09:45:00.527Z,100764.00
2022-08-26T09:47:34.625Z,100768.00
2022-08-26T09:50:12.383Z,100758.00
2022-08-26T09:52:43.128Z,100754.00
2022-08-26T09:55:24.129Z,100752.00
2022-08-26T09:57:57.538Z,100751.00
2022-08-26T10:00:35.435Z,100747.00
2022-08-26T10:03:15.561Z,100750.00
2022-08-26T10:05:57.584Z,100739.00
2022-08-26T10:08:33.984Z,100732.00
2022-08-26T10:11:17.927Z,100734.00
2022-08-26T10:13:55.662Z,100725.00
2022-08-26T10:16:30.287Z,100726.00
2022-08-26T10:19:09.261Z,100712.00
2022-08-26T10:21:45.684Z,100712.00
2022-08-26T10:24:31.323Z,100709.00
2022-08-26T10:27:13.599Z,100700.00
2022-08-26T10:29:49.500Z,100696.00
2022-08-26T10:32:30.959Z,100683.00
2022-08-26T10:35:01.372Z,100682.00
2022-08-26T10:37:48.858Z,100674.00
2022-08-26T10:40:27.601Z,100676.00
2022-08-26T10:43:11.171Z,100668.00
2022-08-26T10:45:47.318Z,100665.00
2022-08-26T10:48:23.509Z,100659.00
2022-08-26T10:50:53.832Z,100659.00
2022-08-26T10:53:33.908Z,100661.00
2022-08-26T10:56:18.842Z,100661.00
2022-08-26T10:59:10.416Z,100664.00
2022-08-26T11:01:52.546Z,100651.00
2022-08-26T11:04:42.371Z,100651.00
2022-08-26T11:07:41.028Z,100648.00
2022-08-26T11:10:49.395Z,100638.00
2022-08-26T11:13:22.989Z,100633.00
2022-08-26T11:16:11.200Z,100622.00
2022-08-26T11:18:51.350Z,100621.00
2022-08-26T11:21:53.784Z,100610.00
2022-08-26T11:25:03.081Z,100613.00
2022-08-26T11:28:09.727Z,100606.00
2022-08-26T11:30:57.826Z,100600.00
2022-08-26T11:34:00.253Z,100588.00
2022-08-26T11:37:02.469Z,100576.00
2022-08-26T11:39:54.044Z,100567.00
2022-08-26T11:42:38.187Z,100559.00
2022-08-26T11:45:24.334Z,100561.00
2022-08-26T11:47:57.729Z,100569.00
2022-08-26T11:50:31.323Z,100563.00
2022-08-26T11:53:06.252Z,100575.00
2022-08-26T11:55:39.400Z,100569.00
2022-08-26T11:58:09.748Z,100562.00
2022-08-26T12:00:55.328Z,100564.00
2022-08-26T12:03:38.906Z,100564.00
2022-08-26T12:06:17.264Z,100561.00
2022-08-26T12:08:48.553Z,100564.00
2022-08-26T12:11:27.156Z,100562.00
2022-08-26T12:14:00.526Z,100556.00
2022-08-26T12:16:33.594Z,100543.00
2022-08-26T12:19:27.436Z,100545.00
2022-08-26T12:22:01.790Z,100549.00
2022-08-26T12:24:32.072Z,100559.00
2022-08-26T12:27:19.952Z,100561.00
2022-08-26T12:30:06.802Z,100562.00
2022-08-26T12:32:57.155Z,100564.00
2022-08-26T12:35:31.299Z,100571.00
2022-08-26T12:38:03.006Z,100574.00
2022-08-26T12:40:40.113Z,100581.00
2022-08-26T12:43:15.804Z,100595.00
2022-08-26T12:45:58.225Z,100586.00
2022-08-26T12:48:32.548Z,100582.00
2022-08-26T12:51:09.583Z,100578.00
2022-08-26T12:53:46.465Z,100582.00
2022-08-26T12:56:30.472Z,100601.00
2022-08-26T12:59:12.255Z,100605.00
2022-08-26T13:01:46.956Z,100625.00
2022-08-26T13:04:38.463Z,100611.00
2022-08-26T13:07:25.710Z,100618.00
2022-08-26T13:09:58.603Z,100630.00
2022-08-26T13:12:33.296Z,100631.00
2022-08-26T13:15:05.365Z,100614.00
2022-08-26T13:17:36.223Z,100605.00
2022-08-26T13:20:07.725Z,100604.00
2022-08-26T13:25:12.020Z,100613.00
2022-08-26T13:27:42.352Z,100610.00
2022-08-26T13:30:15.012Z,100619.00
2022-08-26T13:32:45.597Z,100620.00
2022-08-26T13:35:15.879Z,100627.00
2022-08-26T13:37:48.798Z,100634.00
2022-08-26T13:40:19.462Z,100620.00
2022-08-26T13:42:50.183Z,100627.00
2022-08-26T13:45:20.892Z,100623.00
2022-08-26T13:47:51.425Z,100611.00
2022-08-26T13:50:21.761Z,100596.00
2022-08-26T13:52:54.659Z,100596.00
2022-08-26T13:55:25.156Z,100595.00
2022-08-26T13:57:55.388Z,100597.00
2022-08-26T14:00:25.937Z,100576.00
2022-08-26T14:02:56.369Z,100566.00
2022-08-26T14:05:26.859Z,100565.00
2022-08-26T14:08:00.314Z,100568.00
2022-08-26T14:10:31.031Z,100566.00
2022-08-26T14:13:01.399Z,100560.00
2022-08-26T14:15:32.337Z,100565.00
2022-08-26T14:18:05.462Z,100571.00
2022-08-26T14:20:39.702Z,100569.00
2022-08-26T14:23:14.160Z,100557.00
2022-08-26T14:25:45.278Z,100563.00
2022-08-26T14:28:15.720Z,100562.00
2022-08-26T14:30:49.345Z,100559.00
2022-08-26T14:33:23.188Z,100566.00
2022-08-26T14:35:53.695Z,100589.00
2022-08-26T14:38:26.697Z,100627.00
2022-08-26T14:40:57.073Z,100630.00
2022-08-26T14:43:27.357Z,100624.00
2022-08-26T14:45:57.677Z,100616.00
2022-08-26T14:48:28.092Z,100647.00
2022-08-26T14:50:58.457Z,100641.00
2022-08-26T14:53:43.794Z,100624.00
2022-08-26T14:56:16.686Z,100607.00
2022-08-26T14:58:47.239Z,100602.00
2022-08-26T15:01:17.664Z,100597.00
2022-08-26T15:03:48.784Z,100602.00
2022-08-26T15:06:19.917Z,100576.00
2022-08-26T15:08:52.820Z,100583.00
2022-08-26T15:11:23.121Z,100574.00
2022-08-26T15:13:53.577Z,100565.00
2022-08-26T15:16:24.134Z,100567.00
2022-08-26T15:18:54.664Z,100568.00
2022-08-26T15:21:25.270Z,100573.00
2022-08-26T15:23:58.258Z,100586.00
2022-08-26T15:26:29.993Z,100587.00
2022-08-26T15:29:04.336Z,100602.00
2022-08-26T15:31:36.808Z,100603.00
2022-08-26T15:34:16.175Z,100606.00
2022-08-26T15:36:47.580Z,100629.00
2022-08-26T15:39:20.917Z,100628.00
2022-08-26T15:41:51.752Z,100625.00
2022-08-26T15:44:22.092Z,100615.00
2022-08-26T15:46:58.289Z,100618.00
2022-08-26T15:49:29.124Z,100612.00
2022-08-26T15:51:59.761Z,100606.00
2022-08-26T15:54:32.664Z,100582.00
2022-08-26T15:57:07.173Z,100577.00
2022-08-26T15:59:39.876Z,100569.00
2022-08-26T16:02:11.266Z,100560.00
2022-08-26T16:04:42.060Z,100560.00
2022-08-26T16:07:14.136Z,100565.00
2022-08-26T16:09:49.207Z,100577.00
2022-08-26T16:12:24.448Z,100581.00
2022-08-26T16:14:54.784Z,100588.00
2022-08-26T16:17:25.836Z,100580.00
2022-08-26T16:19:56.439Z,100561.00
2022-08-26T16:22:28.505Z,100548.00
2022-08-26T16:25:02.550Z,100532.00
2022-08-26T16:27:32.769Z,100528.00
2022-08-26T16:30:03.143Z,100537.00
2022-08-26T16:32:33.425Z,100540.00
2022-08-26T16:35:03.698Z,100540.00
2022-08-26T16:37:38.945Z,100548.00
2022-08-26T16:40:14.263Z,100542.00
2022-08-26T16:42:44.553Z,100550.00
2022-08-26T16:45:15.200Z,100537.00
2022-08-26T16:47:45.763Z,100537.00
2022-08-26T16:50:16.334Z,100534.00
2022-08-26T16:52:46.620Z,100530.00
2022-08-26T16:55:25.769Z,100528.00
2022-08-26T16:57:56.197Z,100535.00
2022-08-26T17:00:30.527Z,100541.00
2022-08-26T17:03:03.027Z,100531.00
2022-08-26T17:05:33.768Z,100527.00
2022-08-26T17:08:04.067Z,100529.00
2022-08-26T17:10:37.909Z,100540.00
2022-08-26T17:13:08.735Z,100550.00
2022-08-26T17:15:39.061Z,100565.00
2022-08-26T17:18:09.576Z,100570.00
2022-08-26T17:20:39.735Z,100567.00
2022-08-26T17:23:10.371Z,100582.00
2022-08-26T17:25:43.583Z,100581.00
2022-08-26T17:28:14.443Z,100574.00
2022-08-26T17:30:45.026Z,100577.00
2022-08-26T17:33:15.378Z,100562.00
2022-08-26T17:35:53.144Z,100561.00
2022-08-26T17:38:24.005Z,100552.00
2022-08-26T17:40:57.503Z,100545.00
2022-08-26T17:43:29.543Z,100543.00
2022-08-26T17:46:07.020Z,100540.00
2022-08-26T17:48:37.742Z,100542.00
2022-08-26T17:51:12.317Z,100536.00
2022-08-26T17:53:42.633Z,100523.00
2022-08-26T17:56:18.618Z,100505.00
2022-08-26T17:58:52.015Z,100509.00
2022-08-26T18:01:22.782Z,100502.00
2022-08-26T18:03:56.687Z,100492.00
2022-08-26T18:06:30.480Z,100493.00
2022-08-26T18:09:01.380Z,100502.00
2022-08-26T18:11:34.831Z,100495.00
2022-08-26T18:14:05.192Z,100498.00
2022-08-26T18:16:38.484Z,100481.00
2022-08-26T18:19:09.520Z,100479.00
2022-08-26T18:21:39.920Z,100480.00
2022-08-26T18:24:14.093Z,100477.00
2022-08-26T18:26:49.610Z,100470.00
2022-08-26T18:29:20.286Z,100463.00
2022-08-26T18:31:51.338Z,100467.00
2022-08-26T18:34:21.644Z,100467.00
2022-08-26T18:36:55.280Z,100457.00
2022-08-26T18:39:25.620Z,100457.00
2022-08-26T18:41:59.030Z,100463.00
2022-08-26T18:44:29.453Z,100456.00
2022-08-26T18:46:59.696Z,100463.00
2022-08-26T18:49:30.047Z,100458.00
2022-08-26T18:52:00.380Z,100459.00
2022-08-26T18:54:30.586Z,100463.00
2022-08-26T18:57:03.541Z,100467.00
2022-08-26T18:59:33.669Z,100458.00
2022-08-26T19:02:04.152Z,100471.00
2022-08-26T19:04:34.637Z,100469.00
2022-08-26T19:07:04.958Z,100475.00
2022-08-26T19:09:35.994Z,100484.00
2022-08-26T19:12:09.763Z,100486.00
2022-08-26T19:14:40.123Z,100497.00
2022-08-26T19:17:10.400Z,100497.00
2022-08-26T19:19:40.885Z,100503.00
2022-08-26T19:22:11.362Z,100499.00
2022-08-26T19:24:41.646Z,100507.00
2022-08-26T19:27:15.130Z,100518.00
2022-08-26T19:29:45.403Z,100531.00
2022-08-26T19:32:17.124Z,100529.00
2022-08-26T19:34:47.495Z,100537.00
2022-08-26T19:37:17.875Z,100550.00
2022-08-26T19:39:48.075Z,100570.00
2022-08-26T19:42:20.937Z,100579.00
2022-08-26T19:45:03.607Z,100572.00
2022-08-26T19:47:33.838Z,100573.00
2022-08-26T19:50:04.032Z,100588.00
2022-08-26T19:52:34.359Z,100578.00
2022-08-26T19:55:06.899Z,100575.00
2022-08-26T19:57:41.352Z,100579.00
2022-08-26T20:00:14.803Z,100576.00
2022-08-26T20:02:46.505Z,100572.00
2022-08-26T20:05:20.105Z,100561.00
2022-08-26T20:07:50.919Z,100559.00
2022-08-26T20:10:25.564Z,100556.00
2022-08-26T20:12:58.641Z,100557.00
2022-08-26T20:15:29.194Z,100559.00
2022-08-26T20:17:59.719Z,100547.00
2022-08-26T20:20:42.381Z,100565.00
2022-08-26T20:23:12.987Z,100573.00
2022-08-26T20:25:43.876Z,100580.00
2022-08-26T20:28:16.808Z,100575.00
2022-08-26T20:30:47.244Z,100595.00
2022-08-26T20:33:17.575Z,100589.00
2022-08-26T20:35:47.883Z,100593.00
2022-08-26T20:38:21.454Z,100586.00
2022-08-26T20:40:52.178Z,100578.00
2022-08-26T20:43:29.595Z,100593.00
2022-08-26T20:46:00.054Z,100594.00
2022-08-26T20:48:30.683Z,100609.00
2022-08-26T20:51:02.613Z,100608.00
2022-08-26T20:53:33.427Z,100611.00
2022-08-26T20:56:05.107Z,100621.00
2022-08-26T20:58:38.587Z,100623.00
2022-08-26T21:01:09.829Z,100615.00
2022-08-26T21:03:41.080Z,100625.00
2022-08-26T21:06:11.538Z,100617.00
2022-08-26T21:08:43.278Z,100619.00
2022-08-26T21:11:14.942Z,100626.00
2022-08-26T21:14:04.381Z,100630.00
2022-08-26T21:16:39.241Z,100622.00
2022-08-26T21:19:14.002Z,100609.00
2022-08-26T21:21:44.903Z,100606.00
2022-08-26T21:24:15.785Z,100608.00
2022-08-26T21:26:46.644Z,100602.00
2022-08-26T21:29:22.132Z,100597.00
2022-08-26T21:31:52.680Z,100578.00
2022-08-26T21:34:23.883Z,100569.00
2022-08-26T21:36:54.362Z,100582.00
2022-08-26T21:39:24.776Z,100590.00
2022-08-26T21:41:55.115Z,100576.00
2022-08-26T21:44:28.316Z,100574.00
2022-08-26T21:46:58.651Z,100561.00
2022-08-26T21:49:28.842Z,100561.00
2022-08-26T21:51:59.279Z,100559.00
2022-08-26T21:54:29.480Z,100560.00
2022-08-26T21:57:00.243Z,100561.00
2022-08-26T21:59:33.369Z,100554.00
2022-08-26T22:02:05.766Z,100568.00
2022-08-26T22:04:36.303Z,100586.00
2022-08-26T22:07:06.771Z,100582.00
2022-08-26T22:09:40.336Z,100586.00
2022-08-26T22:12:18.246Z,100583.00
2022-08-26T22:14:51.161Z,100565.00
2022-08-26T22:17:22.647Z,100555.00
2022-08-26T22:19:53.340Z,100557.00
2022-08-26T22:22:23.667Z,100542.00
2022-08-26T22:24:54.034Z,100531.00
2022-08-26T22:27:24.323Z,100537.00
2022-08-26T22:29:57.375Z,100532.00
2022-08-26T22:32:27.671Z,100522.00
2022-08-26T22:34:57.966Z,100516.00
2022-08-26T22:37:28.452Z,100503.00
2022-08-26T22:39:58.751Z,100505.00
2022-08-26T22:42:29.301Z,100501.00
2022-08-26T22:45:02.278Z,100495.00
2022-08-26T22:47:32.750Z,100504.00
2022-08-26T22:50:06.633Z,100504.00
2022-08-26T22:52:37.204Z,100514.00
2022-08-26T22:55:09.175Z,100512.00
2022-08-26T22:57:39.745Z,100509.00
2022-08-26T23:00:15.248Z,100515.00
2022-08-26T23:02:45.860Z,100519.00
2022-08-26T23:05:16.440Z,100523.00
2022-08-26T23:07:46.755Z,100512.00
2022-08-26T23:10:17.112Z,100523.00
2022-08-26T23:12:47.439Z,100513.00
2022-08-26T23:15:20.265Z,100507.00
2022-08-26T23:17:58.645Z,100500.00
2022-08-26T23:20:30.736Z,100496.00
2022-08-26T23:23:01.566Z,100501.00
2022-08-26T23:25:32.593Z,100498.00
2022-08-26T23:28:04.209Z,100504.00
2022-08-26T23:30:37.378Z,100506.00
2022-08-26T23:33:08.500Z,100507.00
2022-08-26T23:35:36.215Z,100518.00
2022-08-26T23:38:09.969Z,100522.00
2022-08-26T23:40:44.160Z,100520.00
2022-08-26T23:43:16.536Z,100522.00
2022-08-26T23:45:49.588Z,100526.00
2022-08-26T23:48:19.836Z,100529.00
2022-08-26T23:51:04.912Z,100519.00
2022-08-26T23:53:35.176Z,100523.00
2022-08-26T23:56:06.040Z,100518.00
2022-08-26T23:58:36.284Z,100517.00
